TimeEDT,TemperatureF,Dew PointF,Humidity,Sea Level PressureIn,VisibilityMPH,Wind Direction,Wind SpeedMPH,Gust SpeedMPH,PrecipitationIn,Events,Conditions,WindDirDegrees,DateUTC
12:15 AM,66.2,62.6,88,30.08,7.0,Calm,Calm,-,N/A,,Overcast,0,2013-10-16 04:15:00
12:35 AM,66.2,62.6,88,30.07,7.0,Calm,Calm,-,N/A,,Overcast,0,2013-10-16 04:35:00
12:55 AM,66.2,62.6,88,30.07,7.0,Calm,Calm,-,N/A,,Overcast,0,2013-10-16 04:55:00
1:15 AM,66.2,62.6,88,30.07,5.0,Calm,Calm,-,N/A,,Overcast,0,2013-10-16 05:15:00
1:35 AM,66.2,62.6,88,30.08,5.0,Calm,Calm,-,N/A,,Overcast,0,2013-10-16 05:35:00
1:55 AM,66.2,62.6,88,30.07,3.0,Calm,Calm,-,N/A,,Overcast,0,2013-10-16 05:55:00
2:15 AM,64.4,62.6,94,30.06,4.0,Calm,Calm,-,N/A,,Overcast,0,2013-10-16 06:15:00
2:35 AM,64.4,62.6,94,30.06,4.0,Calm,Calm,-,N/A,,Overcast,0,2013-10-16 06:35:00
2:55 AM,64.4,62.6,94,30.06,3.0,Calm,Calm,-,N/A,,Overcast,0,2013-10-16 06:55:00
3:15 AM,64.4,62.6,94,30.05,3.0,Calm,Calm,-,N/A,,Overcast,0,2013-10-16 07:15:00
3:35 AM,64.4,62.6,94,30.05,5.0,Calm,Calm,-,N/A,,Overcast,0,2013-10-16 07:35:00
3:55 AM,64.4,62.6,94,30.05,4.0,Calm,Calm,-,N/A,,Overcast,0,2013-10-16 07:55:00
4:15 AM,64.4,62.6,94,30.05,4.0,Calm,Calm,-,N/A,,Overcast,0,2013-10-16 08:15:00
4:35 AM,64.4,62.6,94,30.05,3.0,Calm,Calm,-,N/A,,Overcast,0,2013-10-16 08:35:00
4:55 AM,64.4,62.6,94,30.04,4.0,Calm,Calm,-,N/A,,Overcast,0,2013-10-16 08:55:00
5:15 AM,64.4,62.6,94,30.04,4.0,Calm,Calm,-,N/A,,Overcast,0,2013-10-16 09:15:00
5:35 AM,64.4,62.6,94,30.04,5.0,Calm,Calm,-,N/A,,Overcast,0,2013-10-16 09:35:00
5:55 AM,64.4,62.6,94,30.05,7.0,Calm,Calm,-,N/A,,Overcast,0,2013-10-16 09:55:00
6:15 AM,64.4,62.6,94,30.05,7.0,Calm,Calm,-,N/A,,Overcast,0,2013-10-16 10:15:00
6:35 AM,64.4,62.6,94,30.05,7.0,Calm,Calm,-,N/A,,Overcast,0,2013-10-16 10:35:00
6:55 AM,64.4,62.6,94,30.05,7.0,Calm,Calm,-,N/A,,Overcast,0,2013-10-16 10:55:00
7:15 AM,64.4,62.6,94,30.04,7.0,Calm,Calm,-,N/A,,Overcast,0,2013-10-16 11:15:00
7:35 AM,64.4,62.6,94,30.05,7.0,Calm,Calm,-,N/A,,Overcast,0,2013-10-16 11:35:00
7:55 AM,64.4,62.6,94,30.06,5.0,Calm,Calm,-,N/A,,Overcast,0,2013-10-16 11:55:00
8:15 AM,64.4,62.6,94,30.06,5.0,Calm,Calm,-,N/A,,Overcast,0,2013-10-16 12:15:00
8:35 AM,64.4,62.6,94,30.07,5.0,Calm,Calm,-,N/A,,Overcast,0,2013-10-16 12:35:00
8:55 AM,64.4,62.6,94,30.07,5.0,Calm,Calm,-,N/A,,Overcast,0,2013-10-16 12:55:00
9:15 AM,66.2,62.6,88,30.07,5.0,Calm,Calm,-,N/A,,Overcast,0,2013-10-16 13:15:00
9:35 AM,68.0,62.6,83,30.06,7.0,Calm,Calm,-,N/A,,Overcast,0,2013-10-16 13:35:00
9:55 AM,68.0,62.6,83,30.06,7.0,Calm,Calm,-,N/A,,Overcast,0,2013-10-16 13:55:00
10:15 AM,68.0,62.6,83,30.06,7.0,Calm,Calm,-,N/A,,Overcast,0,2013-10-16 14:15:00
10:35 AM,69.8,62.6,78,30.06,7.0,Calm,Calm,-,N/A,,Overcast,0,2013-10-16 14:35:00
10:55 AM,69.8,62.6,78,30.05,10.0,Calm,Calm,-,N/A,,Overcast,0,2013-10-16 14:55:00
11:15 AM,69.8,62.6,78,30.06,10.0,Calm,Calm,-,N/A,,Overcast,0,2013-10-16 15:15:00
11:35 AM,69.8,62.6,78,30.05,10.0,Calm,Calm,-,N/A,,Overcast,0,2013-10-16 15:35:00
11:55 AM,71.6,62.6,73,30.05,10.0,Calm,Calm,-,N/A,,Overcast,0,2013-10-16 15:55:00
12:15 PM,71.6,60.8,69,30.05,10.0,Calm,Calm,-,N/A,,Overcast,0,2013-10-16 16:15:00
12:35 PM,71.6,60.8,69,30.04,10.0,Calm,Calm,-,N/A,,Overcast,0,2013-10-16 16:35:00
12:55 PM,71.6,60.8,69,30.03,10.0,Calm,Calm,-,N/A,,Overcast,0,2013-10-16 16:55:00
1:15 PM,71.6,60.8,69,30.03,10.0,Calm,Calm,-,N/A,,Overcast,0,2013-10-16 17:15:00
1:35 PM,71.6,60.8,69,30.02,10.0,Calm,Calm,-,N/A,,Overcast,0,2013-10-16 17:35:00
1:55 PM,71.6,60.8,69,30.02,10.0,Calm,Calm,-,N/A,,Overcast,0,2013-10-16 17:55:00
2:15 PM,71.6,60.8,69,30.01,10.0,Calm,Calm,-,N/A,,Overcast,0,2013-10-16 18:15:00
2:35 PM,73.4,60.8,65,30.00,10.0,Calm,Calm,-,N/A,,Overcast,0,2013-10-16 18:35:00
2:55 PM,71.6,60.8,69,30.00,10.0,Calm,Calm,-,N/A,,Overcast,0,2013-10-16 18:55:00
3:15 PM,71.6,60.8,69,30.00,10.0,Calm,Calm,-,N/A,,Overcast,0,2013-10-16 19:15:00
3:35 PM,71.6,60.8,69,29.99,10.0,Calm,Calm,-,N/A,,Overcast,0,2013-10-16 19:35:00
3:55 PM,73.4,60.8,65,30.00,10.0,Calm,Calm,-,N/A,,Overcast,0,2013-10-16 19:55:00
4:15 PM,73.4,60.8,65,29.99,10.0,Calm,Calm,-,N/A,,Overcast,0,2013-10-16 20:15:00
4:35 PM,73.4,60.8,65,29.98,10.0,Calm,Calm,-,N/A,,Overcast,0,2013-10-16 20:35:00
4:55 PM,73.4,60.8,65,29.98,10.0,Calm,Calm,-,N/A,,Overcast,0,2013-10-16 20:55:00
5:15 PM,71.6,62.6,73,29.99,10.0,Calm,Calm,-,N/A,,Overcast,0,2013-10-16 21:15:00
5:35 PM,71.6,62.6,73,29.98,10.0,Calm,Calm,-,N/A,,Overcast,0,2013-10-16 21:35:00
5:55 PM,71.6,62.6,73,29.98,10.0,Calm,Calm,-,N/A,,Overcast,0,2013-10-16 21:55:00
6:15 PM,71.6,64.4,78,29.98,10.0,Calm,Calm,-,N/A,,Overcast,0,2013-10-16 22:15:00
6:35 PM,69.8,64.4,83,29.98,10.0,Calm,Calm,-,N/A,,Overcast,0,2013-10-16 22:35:00
6:55 PM,69.8,64.4,83,29.98,10.0,Calm,Calm,-,N/A,,Overcast,0,2013-10-16 22:55:00
7:15 PM,68.0,62.6,83,29.99,10.0,Calm,Calm,-,N/A,,Scattered Clouds,0,2013-10-16 23:15:00
7:35 PM,66.2,62.6,88,29.99,7.0,Calm,Calm,-,N/A,,Scattered Clouds,0,2013-10-16 23:35:00
7:55 PM,64.4,62.6,94,30.00,7.0,Calm,Calm,-,N/A,,Clear,0,2013-10-16 23:55:00
8:15 PM,66.2,62.6,88,29.99,7.0,Calm,Calm,-,N/A,,Clear,0,2013-10-17 00:15:00
8:35 PM,64.4,62.6,94,30.00,7.0,Calm,Calm,-,N/A,,Clear,0,2013-10-17 00:35:00
8:55 PM,64.4,62.6,94,30.00,7.0,Calm,Calm,-,N/A,,Clear,0,2013-10-17 00:55:00
9:35 PM,64.4,62.6,94,30.00,7.0,Calm,Calm,-,N/A,,Clear,0,2013-10-17 01:35:00
9:55 PM,64.4,62.6,94,30.00,7.0,Calm,Calm,-,N/A,,Clear,0,2013-10-17 01:55:00
10:15 PM,64.4,62.6,94,30.00,7.0,Calm,Calm,-,N/A,,Clear,0,2013-10-17 02:15:00
10:35 PM,64.4,60.8,88,30.00,7.0,Calm,Calm,-,N/A,,Clear,0,2013-10-17 02:35:00
10:55 PM,64.4,60.8,88,29.99,7.0,Calm,Calm,-,N/A,,Clear,0,2013-10-17 02:55:00
11:15 PM,62.6,60.8,94,29.99,7.0,Calm,Calm,-,N/A,,Clear,0,2013-10-17 03:15:00
11:35 PM,62.6,60.8,94,29.99,7.0,Calm,Calm,-,N/A,,Clear,0,2013-10-17 03:35:00
11:55 PM,62.6,60.8,94,29.98,7.0,Calm,Calm,-,N/A,,Clear,0,2013-10-17 03:55:00